createdAt,value
2023-06-16T00:00:12.865Z,84.03
2023-06-16T00:03:00.971Z,84.12
2023-06-16T00:05:32.372Z,84.38
2023-06-16T00:08:02.011Z,84.50
2023-06-16T00:10:31.326Z,84.46
2023-06-16T00:12:59.280Z,84.50
2023-06-16T00:15:27.238Z,84.63
2023-06-16T00:17:58.178Z,84.77
2023-06-16T00:20:28.121Z,84.94
2023-06-16T00:22:56.195Z,84.69
2023-06-16T00:25:24.440Z,84.88
2023-06-16T00:27:52.302Z,84.84
2023-06-16T00:30:20.633Z,84.91
2023-06-16T00:32:48.916Z,84.95
2023-06-16T00:35:16.920Z,84.95
2023-06-16T00:37:44.783Z,85.15
2023-06-16T00:40:12.764Z,85.12
2023-06-16T00:42:40.757Z,85.21
2023-06-16T00:45:09.578Z,85.46
2023-06-16T00:47:37.732Z,85.36
2023-06-16T00:50:07.011Z,85.24
2023-06-16T00:52:38.884Z,85.22
2023-06-16T00:55:10.210Z,85.35
2023-06-16T00:57:40.426Z,85.29
2023-06-16T01:00:12.916Z,85.39
2023-06-16T01:02:41.359Z,85.45
2023-06-16T01:05:10.163Z,85.52
2023-06-16T01:08:00.572Z,85.61
2023-06-16T01:10:43.579Z,85.66
2023-06-16T01:13:30.014Z,85.61
2023-06-16T01:16:03.166Z,85.42
2023-06-16T01:18:33.909Z,85.35
2023-06-16T01:21:39.184Z,85.52
2023-06-16T01:24:10.079Z,85.58
2023-06-16T01:26:45.635Z,85.78
2023-06-16T01:29:15.268Z,86.02
2023-06-16T01:31:44.560Z,85.94
2023-06-16T01:34:14.757Z,85.80
2023-06-16T01:36:44.266Z,85.78
2023-06-16T01:39:15.192Z,85.85
2023-06-16T01:41:44.212Z,85.89
2023-06-16T01:44:12.359Z,85.83
2023-06-16T01:46:42.542Z,85.68
2023-06-16T01:49:11.146Z,85.50
2023-06-16T01:51:39.441Z,85.27
2023-06-16T01:54:07.503Z,85.42
2023-06-16T01:56:35.690Z,85.63
2023-06-16T01:59:03.726Z,85.74
2023-06-16T02:01:35.320Z,85.63
2023-06-16T02:04:16.786Z,85.66
2023-06-16T02:06:52.862Z,85.76
2023-06-16T02:09:23.593Z,85.78
2023-06-16T02:11:53.504Z,85.78
2023-06-16T02:14:23.012Z,85.91
2023-06-16T02:16:52.571Z,86.02
2023-06-16T02:19:20.614Z,86.15
2023-06-16T02:21:48.664Z,86.27
2023-06-16T02:24:16.892Z,86.25
2023-06-16T02:26:44.895Z,86.15
2023-06-16T02:29:12.766Z,86.20
2023-06-16T02:31:40.843Z,86.21
2023-06-16T02:34:08.714Z,86.24
2023-06-16T02:36:38.092Z,86.37
2023-06-16T02:39:06.289Z,86.44
2023-06-16T02:41:35.644Z,86.57
2023-06-16T02:44:04.467Z,86.60
2023-06-16T02:46:32.347Z,86.62
2023-06-16T02:49:00.298Z,86.70
2023-06-16T02:51:28.361Z,86.63
2023-06-16T02:53:56.233Z,86.45
2023-06-16T02:56:25.371Z,86.34
2023-06-16T02:58:53.297Z,86.41
2023-06-16T03:01:22.878Z,86.46
2023-06-16T03:03:53.396Z,86.51
2023-06-16T03:06:21.930Z,86.61
2023-06-16T03:08:49.794Z,86.60
2023-06-16T03:11:17.812Z,86.45
2023-06-16T03:13:46.429Z,86.45
2023-06-16T03:16:14.228Z,86.76
2023-06-16T03:18:42.187Z,86.90
2023-06-16T03:21:10.147Z,87.01
2023-06-16T03:23:38.116Z,87.11
2023-06-16T03:26:05.978Z,87.08
2023-06-16T03:28:33.949Z,87.08
2023-06-16T03:31:01.812Z,87.17
2023-06-16T03:33:32.752Z,87.10
2023-06-16T03:36:00.722Z,87.02
2023-06-16T03:38:28.589Z,87.04
2023-06-16T03:40:56.879Z,87.16
2023-06-16T03:43:24.730Z,87.16
2023-06-16T03:45:52.689Z,87.23
2023-06-16T03:48:20.770Z,87.20
2023-06-16T03:50:48.837Z,87.19
2023-06-16T03:53:17.346Z,87.24
2023-06-16T03:55:45.611Z,87.33
2023-06-16T03:58:16.603Z,87.33
2023-06-16T04:00:45.000Z,87.43
2023-06-16T04:03:13.459Z,87.50
2023-06-16T04:05:41.495Z,87.57
2023-06-16T04:08:09.461Z,87.61
2023-06-16T04:10:37.459Z,87.65
2023-06-16T04:13:05.392Z,87.69
2023-06-16T04:15:33.362Z,87.69
2023-06-16T04:18:01.443Z,87.74
2023-06-16T04:20:29.509Z,87.80
2023-06-16T04:22:57.467Z,87.83
2023-06-16T04:25:25.907Z,87.88
2023-06-16T04:27:53.815Z,87.84
2023-06-16T04:30:25.616Z,87.75
2023-06-16T04:32:56.565Z,87.61
2023-06-16T04:35:25.538Z,87.30
2023-06-16T04:37:53.417Z,86.97
2023-06-16T04:40:21.482Z,86.68
2023-06-16T04:42:49.932Z,86.42
2023-06-16T04:45:18.755Z,86.11
2023-06-16T04:47:47.124Z,85.85
2023-06-16T04:50:17.210Z,85.89
2023-06-16T04:52:47.870Z,86.23
2023-06-16T04:55:19.181Z,86.17
2023-06-16T04:57:47.045Z,86.08
2023-06-16T05:00:15.265Z,85.41
2023-06-16T05:02:43.619Z,84.82
2023-06-16T05:05:12.441Z,84.28
2023-06-16T05:07:40.510Z,83.83
2023-06-16T05:10:09.485Z,83.53
2023-06-16T05:12:37.470Z,83.14
2023-06-16T05:15:06.362Z,82.70
2023-06-16T05:17:34.499Z,82.30
2023-06-16T05:20:02.799Z,82.14
2023-06-16T05:22:30.684Z,81.89
2023-06-16T05:24:59.032Z,81.26
2023-06-16T05:27:27.319Z,81.05
2023-06-16T05:29:58.487Z,80.48
2023-06-16T05:32:28.704Z,80.25
2023-06-16T05:34:57.863Z,79.64
2023-06-16T05:37:25.751Z,79.36
2023-06-16T05:39:53.710Z,79.19
2023-06-16T05:42:21.714Z,78.69
2023-06-16T05:44:49.677Z,78.36
2023-06-16T05:47:17.718Z,78.14
2023-06-16T05:49:45.619Z,77.26
2023-06-16T05:52:13.545Z,76.71
2023-06-16T05:54:41.753Z,76.84
2023-06-16T05:57:10.107Z,76.93
2023-06-16T05:59:38.067Z,76.56
2023-06-16T06:02:07.004Z,76.85
2023-06-16T06:04:35.280Z,76.48
2023-06-16T06:07:03.814Z,76.19
2023-06-16T06:09:31.885Z,75.70
2023-06-16T06:11:59.756Z,75.03
2023-06-16T06:14:27.714Z,73.21
2023-06-16T06:16:55.623Z,72.74
2023-06-16T06:19:25.418Z,71.76
2023-06-16T06:21:53.320Z,71.71
2023-06-16T06:24:22.301Z,72.42
2023-06-16T06:26:50.627Z,72.67
2023-06-16T06:29:18.594Z,72.34
2023-06-16T06:31:46.492Z,70.59
2023-06-16T06:34:14.431Z,70.11
2023-06-16T06:36:42.327Z,69.77
2023-06-16T06:39:10.393Z,70.94
2023-06-16T06:41:38.546Z,71.03
2023-06-16T06:44:06.402Z,70.54
2023-06-16T06:46:34.494Z,70.20
2023-06-16T06:49:02.544Z,70.53
2023-06-16T06:51:30.435Z,69.50
2023-06-16T06:53:58.482Z,66.66
2023-06-16T06:56:27.173Z,67.18
2023-06-16T06:58:55.064Z,66.84
2023-06-16T07:01:22.994Z,66.42
2023-06-16T07:03:51.208Z,66.11
2023-06-16T07:06:19.345Z,67.68
2023-06-16T07:08:47.222Z,66.07
2023-06-16T07:11:15.072Z,66.11
2023-06-16T07:13:43.049Z,66.96
2023-06-16T07:16:11.180Z,66.22
2023-06-16T07:18:40.008Z,64.05
2023-06-16T07:21:08.079Z,65.84
2023-06-16T07:23:36.254Z,64.87
2023-06-16T07:26:04.226Z,65.60
2023-06-16T07:28:32.284Z,65.83
2023-06-16T07:31:00.263Z,65.66
2023-06-16T07:33:28.222Z,63.48
2023-06-16T07:35:56.208Z,63.33
2023-06-16T07:38:24.498Z,63.22
2023-06-16T07:40:52.638Z,64.31
2023-06-16T07:43:22.521Z,64.18
2023-06-16T07:45:52.641Z,64.43
2023-06-16T07:48:20.676Z,64.15
2023-06-16T07:50:49.123Z,63.83
2023-06-16T07:53:17.293Z,62.63
2023-06-16T07:55:45.261Z,63.50
2023-06-16T07:58:13.453Z,63.96
2023-06-16T08:00:41.507Z,63.82
2023-06-16T08:03:09.805Z,63.88
2023-06-16T08:05:37.979Z,64.79
2023-06-16T08:08:06.243Z,64.70
2023-06-16T08:10:34.206Z,64.49
2023-06-16T08:13:02.274Z,63.61
2023-06-16T08:15:30.231Z,63.06
2023-06-16T08:17:58.177Z,63.14
2023-06-16T08:20:27.061Z,63.24
2023-06-16T08:22:55.060Z,63.72
2023-06-16T08:25:23.272Z,61.55
2023-06-16T08:27:51.606Z,60.70
2023-06-16T08:30:20.310Z,62.08
2023-06-16T08:32:48.418Z,62.84
2023-06-16T08:35:16.633Z,62.72
2023-06-16T08:37:44.607Z,62.31
2023-06-16T08:40:13.499Z,61.52
2023-06-16T08:42:42.277Z,62.07
2023-06-16T08:45:11.378Z,60.28
2023-06-16T08:47:39.514Z,60.23
2023-06-16T08:50:09.453Z,60.60
2023-06-16T08:52:44.517Z,59.71
2023-06-16T08:55:15.642Z,59.95
2023-06-16T08:57:53.049Z,60.84
2023-06-16T09:00:21.836Z,60.43
2023-06-16T09:02:51.659Z,60.37
2023-06-16T09:05:20.674Z,58.35
2023-06-16T09:07:49.213Z,59.76
2023-06-16T09:10:18.433Z,59.37
2023-06-16T09:12:52.531Z,59.35
2023-06-16T09:15:21.251Z,59.49
2023-06-16T09:17:50.145Z,58.99
2023-06-16T09:20:19.791Z,59.45
2023-06-16T09:22:58.560Z,59.22
2023-06-16T09:25:27.003Z,60.57
2023-06-16T09:27:57.782Z,59.78
2023-06-16T09:30:38.584Z,58.87
2023-06-16T09:33:07.604Z,58.69
2023-06-16T09:35:35.580Z,59.13
2023-06-16T09:38:05.495Z,58.70
2023-06-16T09:40:34.801Z,57.82
2023-06-16T09:43:08.586Z,58.72
2023-06-16T09:45:36.827Z,59.22
2023-06-16T09:48:07.138Z,58.34
2023-06-16T09:50:35.238Z,58.39
2023-06-16T09:53:07.725Z,58.56
2023-06-16T09:55:40.448Z,58.47
2023-06-16T09:58:08.306Z,58.07
2023-06-16T10:00:36.181Z,56.58
2023-06-16T10:03:08.958Z,57.48
2023-06-16T10:05:38.921Z,59.05
2023-06-16T10:08:08.312Z,58.55
2023-06-16T10:10:42.741Z,57.30
2023-06-16T10:13:12.573Z,55.46
2023-06-16T10:15:43.544Z,54.63
2023-06-16T10:18:15.594Z,56.24
2023-06-16T10:20:44.276Z,55.94
2023-06-16T10:23:13.118Z,55.02
2023-06-16T10:25:42.163Z,54.08
2023-06-16T10:28:14.976Z,55.42
2023-06-16T10:30:45.007Z,56.67
2023-06-16T10:33:19.286Z,56.92
2023-06-16T10:36:03.763Z,56.55
2023-06-16T10:38:43.493Z,55.52
2023-06-16T10:41:16.448Z,54.85
2023-06-16T10:43:44.805Z,53.27
2023-06-16T10:46:16.869Z,52.45
2023-06-16T10:49:11.793Z,52.49
2023-06-16T10:51:43.132Z,52.36
2023-06-16T10:54:11.265Z,51.90
2023-06-16T10:57:11.455Z,52.08
2023-06-16T11:00:13.064Z,50.66
2023-06-16T11:02:53.581Z,48.07
2023-06-16T11:05:25.097Z,49.27
2023-06-16T11:08:09.621Z,49.74
2023-06-16T11:10:54.989Z,49.24
2023-06-16T11:13:24.742Z,47.16
2023-06-16T11:15:56.671Z,47.26
2023-06-16T11:18:26.469Z,48.05
2023-06-16T11:20:58.894Z,48.22
2023-06-16T11:23:27.333Z,46.83
2023-06-16T11:26:19.864Z,49.35
2023-06-16T11:28:49.723Z,46.36
2023-06-16T11:31:20.702Z,45.84
2023-06-16T11:33:49.234Z,46.16
2023-06-16T11:36:23.629Z,46.41
2023-06-16T11:38:54.265Z,45.79
2023-06-16T11:41:26.667Z,46.89
2023-06-16T11:43:56.229Z,49.04
2023-06-16T11:46:26.102Z,47.30
2023-06-16T11:48:55.367Z,47.81
2023-06-16T11:51:24.888Z,46.83
2023-06-16T11:53:54.859Z,46.47
2023-06-16T11:56:25.883Z,45.92
2023-06-16T11:58:54.830Z,45.72
2023-06-16T12:01:23.729Z,45.89
2023-06-16T12:04:04.404Z,45.95
2023-06-16T12:06:37.358Z,45.82
2023-06-16T12:09:05.575Z,45.58
2023-06-16T12:11:35.703Z,45.86
2023-06-16T12:14:03.918Z,46.19
2023-06-16T12:16:32.215Z,45.83
2023-06-16T12:19:01.125Z,46.18
2023-06-16T12:21:30.174Z,45.64
2023-06-16T12:24:00.524Z,46.79
2023-06-16T12:26:33.583Z,47.94
2023-06-16T12:29:09.036Z,48.78
2023-06-16T12:31:37.411Z,48.81
2023-06-16T12:34:05.473Z,48.26
2023-06-16T12:36:41.115Z,47.65
2023-06-16T12:39:16.236Z,47.59
2023-06-16T12:41:59.892Z,47.23
2023-06-16T12:44:47.376Z,47.80
2023-06-16T12:47:18.141Z,47.28
2023-06-16T12:49:46.367Z,45.77
2023-06-16T12:52:15.828Z,47.80
2023-06-16T12:54:44.460Z,47.86
2023-06-16T12:57:14.877Z,47.07
2023-06-16T12:59:43.427Z,47.18
2023-06-16T13:02:11.798Z,46.73
2023-06-16T13:04:40.023Z,45.09
2023-06-16T13:07:08.139Z,46.33
2023-06-16T13:09:36.320Z,46.22
2023-06-16T13:12:08.573Z,43.59
2023-06-16T13:14:37.601Z,44.43
2023-06-16T13:17:06.713Z,45.95
2023-06-16T13:19:34.806Z,44.30
2023-06-16T13:22:03.042Z,45.02
2023-06-16T13:24:31.623Z,44.79
2023-06-16T13:27:00.174Z,43.25
2023-06-16T13:29:28.358Z,44.22
2023-06-16T13:31:56.516Z,43.56
2023-06-16T13:34:24.693Z,44.12
2023-06-16T13:36:52.659Z,43.41
2023-06-16T13:39:20.736Z,44.10
2023-06-16T13:41:48.793Z,43.96
2023-06-16T13:44:16.978Z,44.09
2023-06-16T13:46:45.042Z,44.51
2023-06-16T13:49:13.494Z,45.36
2023-06-16T13:51:42.822Z,44.02
2023-06-16T13:54:12.665Z,43.23
2023-06-16T13:56:43.151Z,43.65
2023-06-16T13:59:11.359Z,43.77
2023-06-16T14:01:39.308Z,43.64
2023-06-16T14:04:07.379Z,44.44
2023-06-16T14:06:35.480Z,43.47
2023-06-16T14:09:03.717Z,44.22
2023-06-16T14:11:31.910Z,43.44
2023-06-16T14:14:00.526Z,42.81
2023-06-16T14:16:28.549Z,42.28
2023-06-16T14:18:56.717Z,42.27
2023-06-16T14:21:26.971Z,42.25
2023-06-16T14:23:55.035Z,42.95
2023-06-16T14:26:24.129Z,42.34
2023-06-16T14:28:52.490Z,41.48
2023-06-16T14:31:21.491Z,41.06
2023-06-16T14:33:51.242Z,41.82
2023-06-16T14:36:19.263Z,41.56
2023-06-16T14:38:47.520Z,41.93
2023-06-16T14:41:15.392Z,42.69
2023-06-16T14:43:43.298Z,42.65
2023-06-16T14:46:11.194Z,43.45
2023-06-16T14:48:39.688Z,42.73
2023-06-16T14:51:07.668Z,44.45
2023-06-16T14:53:36.790Z,44.07
2023-06-16T14:56:04.728Z,44.15
2023-06-16T14:58:33.835Z,44.66
2023-06-16T15:01:01.937Z,44.19
2023-06-16T15:03:29.977Z,44.62
2023-06-16T15:05:58.111Z,42.12
2023-06-16T15:08:26.213Z,42.58
2023-06-16T15:10:54.187Z,44.01
2023-06-16T15:13:22.354Z,44.77
2023-06-16T15:15:51.128Z,43.73
2023-06-16T15:18:19.449Z,42.68
2023-06-16T15:20:47.384Z,42.91
2023-06-16T15:23:16.273Z,41.43
2023-06-16T15:25:44.136Z,43.06
2023-06-16T15:28:13.293Z,43.77
2023-06-16T15:30:42.481Z,40.10
2023-06-16T15:33:10.703Z,40.37
2023-06-16T15:35:38.891Z,40.01
2023-06-16T15:38:08.820Z,38.38
2023-06-16T15:40:38.606Z,38.90
2023-06-16T15:43:07.617Z,38.95
2023-06-16T15:45:36.520Z,40.04
2023-06-16T15:48:05.977Z,40.55
2023-06-16T15:50:34.464Z,41.15
2023-06-16T15:53:04.695Z,41.83
2023-06-16T15:55:33.168Z,42.14
2023-06-16T15:58:01.761Z,43.27
2023-06-16T16:00:30.025Z,43.19
2023-06-16T16:02:58.129Z,43.90
2023-06-16T16:05:26.689Z,44.27
2023-06-16T16:07:55.323Z,44.62
2023-06-16T16:10:23.944Z,45.20
2023-06-16T16:12:51.912Z,45.15
2023-06-16T16:15:20.152Z,45.60
2023-06-16T16:17:48.444Z,46.07
2023-06-16T16:20:16.525Z,46.49
2023-06-16T16:22:44.499Z,46.87
2023-06-16T16:25:12.472Z,46.93
2023-06-16T16:27:40.546Z,46.90
2023-06-16T16:30:09.542Z,47.47
2023-06-16T16:32:39.064Z,47.62
2023-06-16T16:35:10.475Z,48.39
2023-06-16T16:37:38.294Z,48.75
2023-06-16T16:40:07.188Z,48.96
2023-06-16T16:42:35.207Z,49.50
2023-06-16T16:45:03.593Z,50.05
2023-06-16T16:47:31.686Z,50.09
2023-06-16T16:49:59.563Z,50.40
2023-06-16T16:52:27.387Z,50.63
2023-06-16T16:54:55.269Z,50.43
2023-06-16T16:57:23.225Z,51.45
2023-06-16T16:59:51.092Z,51.97
2023-06-16T17:02:19.051Z,51.82
2023-06-16T17:04:47.065Z,51.67
2023-06-16T17:07:14.998Z,51.44
2023-06-16T17:09:43.078Z,52.03
2023-06-16T17:12:11.744Z,52.22
2023-06-16T17:14:39.964Z,52.18
2023-06-16T17:17:08.797Z,52.43
2023-06-16T17:19:37.136Z,52.88
2023-06-16T17:22:06.875Z,53.67
2023-06-16T17:24:34.900Z,53.41
2023-06-16T17:27:02.832Z,53.36
2023-06-16T17:29:30.749Z,54.19
2023-06-16T17:31:58.976Z,53.58
2023-06-16T17:34:26.889Z,53.85
2023-06-16T17:36:58.973Z,54.34
2023-06-16T17:39:26.881Z,54.57
2023-06-16T17:41:55.713Z,54.59
2023-06-16T17:44:27.126Z,55.22
2023-06-16T17:46:55.181Z,54.92
2023-06-16T17:49:24.654Z,55.66
2023-06-16T17:51:52.566Z,55.66
2023-06-16T17:54:20.758Z,55.93
2023-06-16T17:56:48.994Z,55.56
2023-06-16T17:59:16.989Z,55.89
2023-06-16T18:01:45.032Z,56.73
2023-06-16T18:04:13.112Z,57.11
2023-06-16T18:06:41.481Z,57.44
2023-06-16T18:09:09.754Z,57.21
2023-06-16T18:11:37.757Z,57.90
2023-06-16T18:14:05.757Z,58.21
2023-06-16T18:16:33.811Z,58.36
2023-06-16T18:19:03.885Z,58.43
2023-06-16T18:21:31.778Z,58.53
2023-06-16T18:23:59.725Z,59.01
2023-06-16T18:26:27.781Z,59.31
2023-06-16T18:28:55.987Z,59.82
2023-06-16T18:31:24.517Z,59.99
2023-06-16T18:33:52.626Z,60.25
2023-06-16T18:36:21.015Z,60.78
2023-06-16T18:38:50.720Z,61.10
2023-06-16T18:41:19.743Z,61.26
2023-06-16T18:43:48.386Z,61.55
2023-06-16T18:46:16.755Z,61.87
2023-06-16T18:48:44.723Z,62.48
2023-06-16T18:51:13.419Z,62.57
2023-06-16T18:53:41.511Z,62.75
2023-06-16T18:56:10.063Z,63.00
2023-06-16T18:58:38.267Z,63.36
2023-06-16T19:01:06.228Z,63.71
2023-06-16T19:03:34.585Z,63.85
2023-06-16T19:06:02.618Z,64.22
2023-06-16T19:08:30.445Z,64.05
2023-06-16T19:10:58.973Z,64.01
2023-06-16T19:13:27.186Z,63.99
2023-06-16T19:15:55.056Z,64.43
2023-06-16T19:18:23.127Z,64.75
2023-06-16T19:20:51.824Z,64.34
2023-06-16T19:23:20.542Z,64.53
2023-06-16T19:25:48.912Z,64.85
2023-06-16T19:28:20.501Z,64.96
2023-06-16T19:30:48.492Z,65.11
2023-06-16T19:33:17.493Z,65.51
2023-06-16T19:35:45.497Z,65.88
2023-06-16T19:38:13.414Z,66.08
2023-06-16T19:40:41.247Z,66.18
2023-06-16T19:43:09.039Z,66.69
2023-06-16T19:45:37.002Z,66.82
2023-06-16T19:48:08.285Z,67.12
2023-06-16T19:50:36.304Z,67.05
2023-06-16T19:53:04.322Z,67.13
2023-06-16T19:55:44.944Z,67.08
2023-06-16T19:58:19.063Z,67.39
2023-06-16T20:00:47.541Z,67.41
2023-06-16T20:03:16.313Z,67.58
2023-06-16T20:05:44.710Z,67.64
2023-06-16T20:08:14.718Z,67.84
2023-06-16T20:10:43.821Z,68.14
2023-06-16T20:13:12.034Z,68.61
2023-06-16T20:15:40.009Z,68.51
2023-06-16T20:18:08.070Z,68.47
2023-06-16T20:20:36.112Z,68.46
2023-06-16T20:23:04.791Z,68.58
2023-06-16T20:25:32.678Z,68.65
2023-06-16T20:28:00.548Z,68.77
2023-06-16T20:30:28.414Z,69.18
2023-06-16T20:32:57.858Z,68.81
2023-06-16T20:35:27.379Z,68.84
2023-06-16T20:37:58.021Z,69.20
2023-06-16T20:40:28.487Z,69.59
2023-06-16T20:42:57.584Z,69.31
2023-06-16T20:45:26.291Z,69.52
2023-06-16T20:47:54.815Z,69.80
2023-06-16T20:50:28.481Z,69.67
2023-06-16T20:52:57.914Z,69.79
2023-06-16T20:55:26.737Z,69.72
2023-06-16T20:57:57.942Z,69.85
2023-06-16T21:00:28.962Z,69.82
2023-06-16T21:02:57.190Z,70.28
2023-06-16T21:05:25.429Z,70.45
2023-06-16T21:07:54.087Z,70.26
2023-06-16T21:10:22.302Z,69.89
2023-06-16T21:12:50.520Z,69.64
2023-06-16T21:15:19.012Z,69.66
2023-06-16T21:17:49.131Z,69.81
2023-06-16T21:20:21.729Z,69.79
2023-06-16T21:22:52.194Z,69.88
2023-06-16T21:25:20.664Z,70.54
2023-06-16T21:27:48.610Z,70.30
2023-06-16T21:30:16.813Z,70.14
2023-06-16T21:32:44.921Z,70.10
2023-06-16T21:35:12.921Z,70.38
2023-06-16T21:37:41.931Z,70.49
2023-06-16T21:40:11.985Z,70.54
2023-06-16T21:42:44.258Z,70.55
2023-06-16T21:45:14.822Z,70.74
2023-06-16T21:47:42.754Z,70.90
2023-06-16T21:50:10.757Z,70.96
2023-06-16T21:52:38.836Z,71.08
2023-06-16T21:55:08.035Z,71.23
2023-06-16T21:57:36.968Z,71.15
2023-06-16T22:00:12.621Z,71.22
2023-06-16T22:02:40.952Z,70.93
2023-06-16T22:05:10.835Z,70.83
2023-06-16T22:07:40.376Z,70.81
2023-06-16T22:10:10.286Z,71.12
2023-06-16T22:12:38.448Z,71.34
2023-06-16T22:15:07.273Z,71.42
2023-06-16T22:17:35.381Z,71.63
2023-06-16T22:20:07.329Z,71.69
2023-06-16T22:22:35.452Z,71.87
2023-06-16T22:25:03.491Z,71.97
2023-06-16T22:27:31.575Z,71.94
2023-06-16T22:30:00.416Z,71.89
2023-06-16T22:32:29.066Z,72.13
2023-06-16T22:34:56.932Z,72.15
2023-06-16T22:37:24.737Z,72.04
2023-06-16T22:39:52.640Z,72.18
2023-06-16T22:42:20.550Z,72.32
2023-06-16T22:44:48.442Z,72.38
2023-06-16T22:47:17.544Z,72.71
2023-06-16T22:49:45.465Z,72.72
2023-06-16T22:52:13.556Z,72.69
2023-06-16T22:54:41.495Z,72.91
2023-06-16T22:57:09.412Z,72.97
2023-06-16T22:59:37.423Z,73.13
2023-06-16T23:02:05.456Z,73.43
2023-06-16T23:04:33.589Z,73.71
2023-06-16T23:07:02.660Z,74.03
2023-06-16T23:09:30.452Z,74.48
2023-06-16T23:11:58.426Z,75.06
2023-06-16T23:14:26.397Z,75.03
2023-06-16T23:16:54.343Z,75.34
2023-06-16T23:19:22.216Z,76.06
2023-06-16T23:21:50.828Z,75.58
2023-06-16T23:24:19.792Z,75.82
2023-06-16T23:26:48.267Z,75.79
2023-06-16T23:29:17.307Z,76.31
2023-06-16T23:31:48.194Z,76.53
2023-06-16T23:34:16.881Z,76.77
2023-06-16T23:36:45.269Z,76.51
2023-06-16T23:39:13.222Z,77.25
2023-06-16T23:41:41.204Z,77.24
2023-06-16T23:44:09.671Z,77.49
2023-06-16T23:46:37.600Z,77.48
2023-06-16T23:49:05.917Z,77.83
2023-06-16T23:51:33.879Z,77.75
2023-06-16T23:54:01.855Z,78.39
2023-06-16T23:56:30.028Z,78.22
2023-06-16T23:58:57.822Z,78.66
